Naperville, Illinois
Current Conditions -  °F | °C
As of 8:52 AM on Wednesday 26 Nov 2014 (Local Time) from KDPA Reporting Station
Haze Haze  
Wind Chill: 13°   Ceiling: 1500
Heat Index: 22°   Visibility: 5mi
Dew Point: 19°   Wind: 7mph
Humidity: 89%   Direction: 160°SSE
Pressure: 30.14"   Gusts: NA
Location:  41.77°N, 88.15°W
Report Text: KDPA 261452Z 16006KT 5SM BR OVC015 M06/M07 A3014 RMK AO2 SLP220 I3001 T10561072 50001
Loading
Personal Weather Stations






























Interactive Weather Map New forecast layout! Learn more

10-Day Weather Forecast

Advertisements
Track Severe Weather on mobile